createdAt,value
2023-05-22T00:01:11.651Z,18.1
2023-05-22T00:07:05.806Z,18.1
2023-05-22T00:12:59.780Z,17.8
2023-05-22T00:18:53.485Z,17.8
2023-05-22T00:24:45.855Z,18
2023-05-22T00:30:37.548Z,17.8
2023-05-22T00:36:31.823Z,17.4
2023-05-22T00:42:25.156Z,17.6
2023-05-22T00:48:19.306Z,17.8
2023-05-22T00:54:20.087Z,17.5
2023-05-22T01:00:13.269Z,17.7
2023-05-22T01:06:05.823Z,17.6
2023-05-22T01:11:57.427Z,17.7
2023-05-22T01:17:50.082Z,17.3
2023-05-22T01:23:46.058Z,17
2023-05-22T01:29:41.517Z,17
2023-05-22T01:35:36.832Z,17.3
2023-05-22T01:41:30.015Z,17.1
2023-05-22T01:47:20.771Z,17.4
2023-05-22T01:54:20.519Z,17.3
2023-05-22T02:00:10.413Z,17.4
2023-05-22T02:06:02.222Z,17.4
2023-05-22T02:11:53.583Z,17.4
2023-05-22T02:17:44.740Z,17.3
2023-05-22T02:23:37.405Z,17.4
2023-05-22T02:29:29.293Z,17.3
2023-05-22T02:35:22.845Z,17.4
2023-05-22T02:41:13.826Z,17.2
2023-05-22T02:47:05.846Z,17.3
2023-05-22T02:52:56.478Z,17.2
2023-05-22T02:58:47.417Z,17.1
2023-05-22T03:04:40.383Z,17.1
2023-05-22T03:10:33.075Z,17.1
2023-05-22T03:16:26.112Z,17
2023-05-22T03:22:18.164Z,17
2023-05-22T03:28:09.055Z,17.1
2023-05-22T03:34:01.862Z,17.1
2023-05-22T03:39:53.182Z,16.9
2023-05-22T03:45:46.710Z,17
2023-05-22T03:51:37.739Z,16.8
2023-05-22T03:57:31.637Z,16.8
2023-05-22T04:03:29.883Z,16.6
2023-05-22T04:09:26.701Z,16.7
2023-05-22T04:15:18.183Z,16.6
2023-05-22T04:21:12.594Z,16.7
2023-05-22T04:27:04.498Z,16.8
2023-05-22T04:32:56.912Z,16.8
2023-05-22T04:38:47.860Z,16.7
2023-05-22T04:44:40.348Z,16.7
2023-05-22T04:50:32.040Z,16.7
2023-05-22T04:56:35.150Z,16.8
2023-05-22T05:02:28.946Z,16.9
2023-05-22T05:08:19.512Z,17
2023-05-22T05:14:11.201Z,17.2
2023-05-22T05:20:02.675Z,17.3
2023-05-22T05:25:55.037Z,17.5
2023-05-22T05:31:45.602Z,17.7
2023-05-22T05:37:37.525Z,17.8
2023-05-22T05:43:32.342Z,17.6
2023-05-22T05:49:24.746Z,17.7
2023-05-22T05:55:18.981Z,17.5
2023-05-22T06:01:12.257Z,17.4
2023-05-22T06:07:03.017Z,17.6
2023-05-22T06:12:55.328Z,17.8
2023-05-22T06:18:49.101Z,18
2023-05-22T06:24:40.966Z,18
2023-05-22T06:30:39.865Z,18
2023-05-22T06:36:34.292Z,18.2
2023-05-22T06:42:26.008Z,18.2
2023-05-22T06:48:16.441Z,18.3
2023-05-22T06:54:08.676Z,18.3
2023-05-22T06:59:59.025Z,18.4
2023-05-22T07:05:52.633Z,18.6
2023-05-22T07:11:46.713Z,18.4
2023-05-22T07:17:40.610Z,18.2
2023-05-22T07:23:32.261Z,18.2
2023-05-22T07:29:24.761Z,18.5
2023-05-22T07:35:18.261Z,18.7
2023-05-22T07:41:10.053Z,18.9
2023-05-22T07:47:03.678Z,18.7
2023-05-22T07:52:55.540Z,19.1
2023-05-22T07:58:48.546Z,19.1
2023-05-22T08:04:44.430Z,19.1
2023-05-22T08:10:46.958Z,19
2023-05-22T08:16:52.797Z,19.3
2023-05-22T08:22:44.745Z,19.6
2023-05-22T08:28:39.575Z,19.9
2023-05-22T08:34:32.365Z,20.2
2023-05-22T08:40:23.838Z,20
2023-05-22T08:46:15.976Z,19.9
2023-05-22T08:52:08.501Z,19.9
2023-05-22T08:58:01.569Z,19.9
2023-05-22T09:03:52.359Z,20.1
2023-05-22T09:09:43.620Z,20.2
2023-05-22T09:15:35.031Z,20.8
2023-05-22T09:21:29.807Z,20.6
2023-05-22T09:27:22.524Z,20.8
2023-05-22T09:33:14.715Z,20.7
2023-05-22T09:39:09.019Z,20.8
2023-05-22T09:45:00.168Z,20.8
2023-05-22T09:50:51.515Z,21.1
2023-05-22T09:56:44.105Z,21.3
2023-05-22T10:02:38.006Z,21.3
2023-05-22T10:08:29.728Z,21.2
2023-05-22T10:14:20.945Z,21.2
2023-05-22T10:20:18.035Z,21.5
2023-05-22T10:26:09.976Z,21.3
2023-05-22T10:32:01.942Z,21
2023-05-22T10:37:53.731Z,21.3
2023-05-22T10:43:46.450Z,21.1
2023-05-22T10:49:38.004Z,21.6
2023-05-22T10:55:30.597Z,21.2
2023-05-22T11:01:27.107Z,21.3
2023-05-22T11:07:46.321Z,21.4
2023-05-22T11:13:59.903Z,21.3
2023-05-22T11:19:59.352Z,21.3
2023-05-22T11:25:53.041Z,21.2
2023-05-22T11:31:45.082Z,21
2023-05-22T11:37:39.295Z,21.4
2023-05-22T11:43:33.359Z,21.4
2023-05-22T11:49:25.823Z,21.2
2023-05-22T12:02:05.247Z,21.6
2023-05-22T12:07:57.873Z,22
2023-05-22T12:13:50.128Z,22
2023-05-22T12:19:50.393Z,21.9
2023-05-22T12:26:03.286Z,21.8
2023-05-22T12:32:06.422Z,21.6
2023-05-22T12:38:06.585Z,22.1
2023-05-22T12:44:02.460Z,22
2023-05-22T12:49:55.306Z,22
2023-05-22T12:55:49.402Z,21.9
2023-05-22T13:07:59.463Z,22.1
2023-05-22T13:20:37.111Z,22.3
2023-05-22T13:26:45.419Z,22.2
2023-05-22T13:39:22.797Z,22.3
2023-05-22T13:45:24.298Z,22.4
2023-05-22T14:31:57.712Z,23
2023-05-22T14:44:59.717Z,23.4
2023-05-22T15:17:48.311Z,23.7
2023-05-22T15:56:50.480Z,23.2
2023-05-22T16:37:10.826Z,22.7
2023-05-22T17:44:46.492Z,22.1
2023-05-22T17:57:11.900Z,21.8
2023-05-22T18:10:12.209Z,21.8
2023-05-22T18:16:39.727Z,21.6
2023-05-22T18:50:04.437Z,21.3
2023-05-22T18:56:03.478Z,21.2
2023-05-22T19:01:55.282Z,20.9
2023-05-22T19:07:49.556Z,20.9
2023-05-22T19:13:42.872Z,20.8
2023-05-22T19:19:35.162Z,20.9
2023-05-22T19:25:28.260Z,20.7
2023-05-22T19:31:19.973Z,20.5
2023-05-22T19:37:12.485Z,20.4
2023-05-22T19:43:05.041Z,20.4
2023-05-22T19:48:57.740Z,20.3
2023-05-22T19:54:49.681Z,20.2
2023-05-22T20:00:42.320Z,20.1
2023-05-22T20:06:35.694Z,20
2023-05-22T20:12:27.469Z,20
2023-05-22T20:18:19.520Z,20
2023-05-22T20:24:12.623Z,20
2023-05-22T20:30:04.932Z,19.8
2023-05-22T20:35:56.929Z,19.7
2023-05-22T20:41:48.710Z,19.8
2023-05-22T20:47:41.050Z,19.8
2023-05-22T20:53:32.970Z,19.8
2023-05-22T20:59:23.630Z,19.8
2023-05-22T21:05:17.123Z,19.8
2023-05-22T21:11:09.152Z,19.8
2023-05-22T21:17:01.216Z,19.8
2023-05-22T21:22:53.867Z,19.8
2023-05-22T21:28:46.207Z,19.8
2023-05-22T21:34:38.395Z,19.7
2023-05-22T21:40:30.355Z,19.6
2023-05-22T21:46:22.736Z,19.6
2023-05-22T21:52:15.311Z,19.7
2023-05-22T21:58:07.663Z,19.6
2023-05-22T22:04:00.019Z,19.6
2023-05-22T22:09:52.789Z,19.5
2023-05-22T22:15:45.465Z,19.3
2023-05-22T22:21:37.734Z,19.2
2023-05-22T22:27:28.392Z,19.1
2023-05-22T22:33:20.753Z,18.9
2023-05-22T22:39:12.784Z,18.9
2023-05-22T22:45:05.005Z,18.8
2023-05-22T22:50:56.972Z,18.7
2023-05-22T22:56:48.609Z,18.6
2023-05-22T23:02:41.457Z,18.5
2023-05-22T23:08:34.082Z,18.4
2023-05-22T23:14:28.144Z,18.5
2023-05-22T23:20:20.495Z,18.2
2023-05-22T23:26:13.274Z,18.2
2023-05-22T23:32:05.323Z,18
2023-05-22T23:38:00.733Z,17.9
2023-05-22T23:43:52.954Z,17.8
2023-05-22T23:49:44.948Z,17.7
2023-05-22T23:55:38.499Z,17.8
